sensor_id;sensor_type;location;lat;lon;timestamp;temperature;humidity
57108;DHT22;42987;52.916;6.542;2024-01-25T00:01:41;8.30;99.90
57108;DHT22;42987;52.916;6.542;2024-01-25T00:04:06;8.30;99.90
57108;DHT22;42987;52.916;6.542;2024-01-25T00:06:32;8.30;99.90
57108;DHT22;42987;52.916;6.542;2024-01-25T00:08:58;8.30;99.90
57108;DHT22;42987;52.916;6.542;2024-01-25T00:11:24;8.30;99.90
57108;DHT22;42987;52.916;6.542;2024-01-25T00:13:50;8.20;99.90
57108;DHT22;42987;52.916;6.542;2024-01-25T00:16:16;8.20;99.90
57108;DHT22;42987;52.916;6.542;2024-01-25T00:18:42;8.10;99.90
57108;DHT22;42987;52.916;6.542;2024-01-25T00:21:08;8.10;99.90
57108;DHT22;42987;52.916;6.542;2024-01-25T00:23:34;8.10;99.90
57108;DHT22;42987;52.916;6.542;2024-01-25T00:25:59;8.00;99.90
57108;DHT22;42987;52.916;6.542;2024-01-25T00:28:26;8.00;99.90
57108;DHT22;42987;52.916;6.542;2024-01-25T00:30:52;8.00;99.90
57108;DHT22;42987;52.916;6.542;2024-01-25T00:33:18;8.00;99.90
57108;DHT22;42987;52.916;6.542;2024-01-25T00:35:44;7.90;99.90
57108;DHT22;42987;52.916;6.542;2024-01-25T00:38:10;7.90;99.90
57108;DHT22;42987;52.916;6.542;2024-01-25T00:40:36;7.90;99.90
57108;DHT22;42987;52.916;6.542;2024-01-25T00:43:02;7.80;99.90
57108;DHT22;42987;52.916;6.542;2024-01-25T00:45:36;7.80;99.90
57108;DHT22;42987;52.916;6.542;2024-01-25T00:48:02;7.80;99.90
57108;DHT22;42987;52.916;6.542;2024-01-25T00:50:29;7.80;99.90
57108;DHT22;42987;52.916;6.542;2024-01-25T00:52:55;7.80;99.90
57108;DHT22;42987;52.916;6.542;2024-01-25T00:55:21;7.70;99.90
57108;DHT22;42987;52.916;6.542;2024-01-25T00:57:47;7.70;99.90
57108;DHT22;42987;52.916;6.542;2024-01-25T01:00:13;7.70;99.90
57108;DHT22;42987;52.916;6.542;2024-01-25T01:02:42;7.70;99.90
57108;DHT22;42987;52.916;6.542;2024-01-25T01:05:09;7.60;99.90
57108;DHT22;42987;52.916;6.542;2024-01-25T01:07:35;7.60;99.90
57108;DHT22;42987;52.916;6.542;2024-01-25T01:10:01;7.60;99.90
57108;DHT22;42987;52.916;6.542;2024-01-25T01:12:26;7.50;99.90
57108;DHT22;42987;52.916;6.542;2024-01-25T01:14:52;7.40;99.90
57108;DHT22;42987;52.916;6.542;2024-01-25T01:17:18;7.40;99.90
57108;DHT22;42987;52.916;6.542;2024-01-25T01:19:44;7.40;99.90
57108;DHT22;42987;52.916;6.542;2024-01-25T01:22:10;7.30;99.90
57108;DHT22;42987;52.916;6.542;2024-01-25T01:24:36;7.30;99.90
57108;DHT22;42987;52.916;6.542;2024-01-25T01:27:02;7.30;99.90
57108;DHT22;42987;52.916;6.542;2024-01-25T01:29:27;7.20;99.90
57108;DHT22;42987;52.916;6.542;2024-01-25T01:31:53;7.20;99.90
57108;DHT22;42987;52.916;6.542;2024-01-25T01:34:19;7.10;99.90
57108;DHT22;42987;52.916;6.542;2024-01-25T01:36:45;7.10;99.90
57108;DHT22;42987;52.916;6.542;2024-01-25T01:39:11;7.10;99.90
57108;DHT22;42987;52.916;6.542;2024-01-25T01:41:37;7.00;99.90
57108;DHT22;42987;52.916;6.542;2024-01-25T01:44:03;7.00;99.90
57108;DHT22;42987;52.916;6.542;2024-01-25T01:46:35;7.00;99.90
57108;DHT22;42987;52.916;6.542;2024-01-25T01:49:03;6.90;99.90
57108;DHT22;42987;52.916;6.542;2024-01-25T01:51:32;6.90;99.90
57108;DHT22;42987;52.916;6.542;2024-01-25T01:54:01;6.90;99.90
57108;DHT22;42987;52.916;6.542;2024-01-25T01:56:28;6.90;99.90
57108;DHT22;42987;52.916;6.542;2024-01-25T01:59:01;6.80;99.90
57108;DHT22;42987;52.916;6.542;2024-01-25T02:01:29;6.80;99.90
57108;DHT22;42987;52.916;6.542;2024-01-25T02:03:55;6.80;99.90
57108;DHT22;42987;52.916;6.542;2024-01-25T02:06:24;6.80;99.90
57108;DHT22;42987;52.916;6.542;2024-01-25T02:08:50;6.70;99.90
57108;DHT22;42987;52.916;6.542;2024-01-25T02:11:17;6.70;99.90
57108;DHT22;42987;52.916;6.542;2024-01-25T02:13:44;6.60;99.90
57108;DHT22;42987;52.916;6.542;2024-01-25T02:16:11;6.60;99.90
57108;DHT22;42987;52.916;6.542;2024-01-25T02:18:36;6.70;99.90
57108;DHT22;42987;52.916;6.542;2024-01-25T02:21:03;6.60;99.90
57108;DHT22;42987;52.916;6.542;2024-01-25T02:23:29;6.60;99.90
57108;DHT22;42987;52.916;6.542;2024-01-25T02:25:55;6.60;99.90
57108;DHT22;42987;52.916;6.542;2024-01-25T02:28:21;6.60;99.90
57108;DHT22;42987;52.916;6.542;2024-01-25T02:30:46;6.50;99.90
57108;DHT22;42987;52.916;6.542;2024-01-25T02:33:15;6.50;99.90
57108;DHT22;42987;52.916;6.542;2024-01-25T02:35:41;6.50;99.90
57108;DHT22;42987;52.916;6.542;2024-01-25T02:38:07;6.50;99.90
57108;DHT22;42987;52.916;6.542;2024-01-25T02:40:33;6.50;99.90
57108;DHT22;42987;52.916;6.542;2024-01-25T02:42:58;6.50;99.90
57108;DHT22;42987;52.916;6.542;2024-01-25T02:45:24;6.40;99.90
57108;DHT22;42987;52.916;6.542;2024-01-25T02:47:50;6.40;99.90
57108;DHT22;42987;52.916;6.542;2024-01-25T02:50:16;6.40;99.90
57108;DHT22;42987;52.916;6.542;2024-01-25T02:52:42;6.40;99.90
57108;DHT22;42987;52.916;6.542;2024-01-25T02:55:08;6.40;99.90
57108;DHT22;42987;52.916;6.542;2024-01-25T02:57:33;6.40;99.90
57108;DHT22;42987;52.916;6.542;2024-01-25T02:59:59;6.40;99.90
57108;DHT22;42987;52.916;6.542;2024-01-25T03:02:28;6.30;99.90
57108;DHT22;42987;52.916;6.542;2024-01-25T03:04:54;6.30;99.90
57108;DHT22;42987;52.916;6.542;2024-01-25T03:07:20;6.30;99.90
57108;DHT22;42987;52.916;6.542;2024-01-25T03:09:45;6.30;99.90
57108;DHT22;42987;52.916;6.542;2024-01-25T03:12:11;6.30;99.90
57108;DHT22;42987;52.916;6.542;2024-01-25T03:14:37;6.20;99.90
57108;DHT22;42987;52.916;6.542;2024-01-25T03:17:03;6.20;99.90
57108;DHT22;42987;52.916;6.542;2024-01-25T03:19:29;6.20;99.90
57108;DHT22;42987;52.916;6.542;2024-01-25T03:21:55;6.10;99.90
57108;DHT22;42987;52.916;6.542;2024-01-25T03:24:21;6.10;99.90
57108;DHT22;42987;52.916;6.542;2024-01-25T03:26:50;6.20;99.90
57108;DHT22;42987;52.916;6.542;2024-01-25T03:29:16;6.10;99.90
57108;DHT22;42987;52.916;6.542;2024-01-25T03:31:41;6.10;99.90
57108;DHT22;42987;52.916;6.542;2024-01-25T03:34:07;6.10;99.90
57108;DHT22;42987;52.916;6.542;2024-01-25T03:36:33;6.10;99.90
57108;DHT22;42987;52.916;6.542;2024-01-25T03:38:59;6.10;99.90
57108;DHT22;42987;52.916;6.542;2024-01-25T03:41:25;6.10;99.90
57108;DHT22;42987;52.916;6.542;2024-01-25T03:43:54;6.10;99.90
57108;DHT22;42987;52.916;6.542;2024-01-25T03:46:19;6.00;99.90
57108;DHT22;42987;52.916;6.542;2024-01-25T03:48:45;6.10;99.90
57108;DHT22;42987;52.916;6.542;2024-01-25T03:51:11;6.00;99.90
57108;DHT22;42987;52.916;6.542;2024-01-25T03:53:37;6.00;99.90
57108;DHT22;42987;52.916;6.542;2024-01-25T03:56:03;6.00;99.90
57108;DHT22;42987;52.916;6.542;2024-01-25T03:58:29;6.00;99.90
57108;DHT22;42987;52.916;6.542;2024-01-25T04:00:55;6.10;99.90
57108;DHT22;42987;52.916;6.542;2024-01-25T04:03:20;6.00;99.90
57108;DHT22;42987;52.916;6.542;2024-01-25T04:05:46;6.00;99.90
57108;DHT22;42987;52.916;6.542;2024-01-25T04:08:12;5.90;99.90
57108;DHT22;42987;52.916;6.542;2024-01-25T04:10:38;5.90;99.90
57108;DHT22;42987;52.916;6.542;2024-01-25T04:13:04;5.90;99.90
57108;DHT22;42987;52.916;6.542;2024-01-25T04:15:32;5.90;99.90
57108;DHT22;42987;52.916;6.542;2024-01-25T04:17:57;5.90;99.90
57108;DHT22;42987;52.916;6.542;2024-01-25T04:20:23;5.90;99.90
57108;DHT22;42987;52.916;6.542;2024-01-25T04:22:49;5.80;99.90
57108;DHT22;42987;52.916;6.542;2024-01-25T04:25:15;5.90;99.90
57108;DHT22;42987;52.916;6.542;2024-01-25T04:27:46;5.80;99.90
57108;DHT22;42987;52.916;6.542;2024-01-25T04:30:12;5.80;99.90
57108;DHT22;42987;52.916;6.542;2024-01-25T04:32:37;5.80;99.90
57108;DHT22;42987;52.916;6.542;2024-01-25T04:35:03;5.70;99.90
57108;DHT22;42987;52.916;6.542;2024-01-25T04:37:29;5.70;99.90
57108;DHT22;42987;52.916;6.542;2024-01-25T04:39:55;5.70;99.90
57108;DHT22;42987;52.916;6.542;2024-01-25T04:42:21;5.70;99.90
57108;DHT22;42987;52.916;6.542;2024-01-25T04:44:47;5.70;99.90
57108;DHT22;42987;52.916;6.542;2024-01-25T04:47:12;5.70;99.90
57108;DHT22;42987;52.916;6.542;2024-01-25T04:49:39;5.70;99.90
57108;DHT22;42987;52.916;6.542;2024-01-25T04:52:05;5.70;99.90
57108;DHT22;42987;52.916;6.542;2024-01-25T04:54:31;5.70;99.90
57108;DHT22;42987;52.916;6.542;2024-01-25T04:56:57;5.60;99.90
57108;DHT22;42987;52.916;6.542;2024-01-25T04:59:23;5.70;99.90
57108;DHT22;42987;52.916;6.542;2024-01-25T05:01:49;5.60;99.90
57108;DHT22;42987;52.916;6.542;2024-01-25T05:04:16;5.60;99.90
57108;DHT22;42987;52.916;6.542;2024-01-25T05:06:41;5.60;99.90
57108;DHT22;42987;52.916;6.542;2024-01-25T05:09:07;5.60;99.90
57108;DHT22;42987;52.916;6.542;2024-01-25T05:11:38;5.50;99.90
57108;DHT22;42987;52.916;6.542;2024-01-25T05:14:05;5.50;99.90
57108;DHT22;42987;52.916;6.542;2024-01-25T05:16:31;5.40;99.90
57108;DHT22;42987;52.916;6.542;2024-01-25T05:18:56;5.40;99.90
57108;DHT22;42987;52.916;6.542;2024-01-25T05:21:22;5.30;99.90
57108;DHT22;42987;52.916;6.542;2024-01-25T05:23:48;5.20;99.90
57108;DHT22;42987;52.916;6.542;2024-01-25T05:26:14;5.20;99.90
57108;DHT22;42987;52.916;6.542;2024-01-25T05:28:40;5.20;99.90
57108;DHT22;42987;52.916;6.542;2024-01-25T05:31:06;5.10;99.90
57108;DHT22;42987;52.916;6.542;2024-01-25T05:33:39;5.10;99.90
57108;DHT22;42987;52.916;6.542;2024-01-25T05:36:05;5.00;99.90
57108;DHT22;42987;52.916;6.542;2024-01-25T05:38:31;5.00;99.90
57108;DHT22;42987;52.916;6.542;2024-01-25T05:40:58;4.90;99.90
57108;DHT22;42987;52.916;6.542;2024-01-25T05:43:24;5.00;99.90
57108;DHT22;42987;52.916;6.542;2024-01-25T05:45:49;4.80;99.90
57108;DHT22;42987;52.916;6.542;2024-01-25T05:48:18;4.80;99.90
57108;DHT22;42987;52.916;6.542;2024-01-25T05:50:44;4.70;99.90
57108;DHT22;42987;52.916;6.542;2024-01-25T05:53:10;4.70;99.90
57108;DHT22;42987;52.916;6.542;2024-01-25T05:55:36;4.70;99.90
57108;DHT22;42987;52.916;6.542;2024-01-25T05:58:01;4.70;99.90
57108;DHT22;42987;52.916;6.542;2024-01-25T06:00:27;4.60;99.90
57108;DHT22;42987;52.916;6.542;2024-01-25T06:02:54;4.60;99.90
57108;DHT22;42987;52.916;6.542;2024-01-25T06:05:19;4.70;99.90
57108;DHT22;42987;52.916;6.542;2024-01-25T06:07:45;4.60;99.90
57108;DHT22;42987;52.916;6.542;2024-01-25T06:10:11;4.60;99.90
57108;DHT22;42987;52.916;6.542;2024-01-25T06:12:37;4.60;99.90
57108;DHT22;42987;52.916;6.542;2024-01-25T06:15:03;4.60;99.90
57108;DHT22;42987;52.916;6.542;2024-01-25T06:17:33;4.60;99.90
57108;DHT22;42987;52.916;6.542;2024-01-25T06:19:58;4.60;99.90
57108;DHT22;42987;52.916;6.542;2024-01-25T06:22:24;4.60;99.90
57108;DHT22;42987;52.916;6.542;2024-01-25T06:24:50;4.50;99.90
57108;DHT22;42987;52.916;6.542;2024-01-25T06:27:15;4.60;99.90
57108;DHT22;42987;52.916;6.542;2024-01-25T06:29:41;4.50;99.90
57108;DHT22;42987;52.916;6.542;2024-01-25T06:32:07;4.60;99.90
57108;DHT22;42987;52.916;6.542;2024-01-25T06:34:33;4.60;99.90
57108;DHT22;42987;52.916;6.542;2024-01-25T06:36:58;4.50;99.90
57108;DHT22;42987;52.916;6.542;2024-01-25T06:39:26;4.60;99.90
57108;DHT22;42987;52.916;6.542;2024-01-25T06:41:53;4.50;99.90
57108;DHT22;42987;52.916;6.542;2024-01-25T06:44:19;4.40;99.90
57108;DHT22;42987;52.916;6.542;2024-01-25T06:46:44;4.40;99.90
57108;DHT22;42987;52.916;6.542;2024-01-25T06:49:11;4.30;99.90
57108;DHT22;42987;52.916;6.542;2024-01-25T06:51:36;4.30;99.90
57108;DHT22;42987;52.916;6.542;2024-01-25T06:54:02;4.30;99.90
57108;DHT22;42987;52.916;6.542;2024-01-25T06:56:28;4.20;99.90
57108;DHT22;42987;52.916;6.542;2024-01-25T06:58:54;4.20;99.90
57108;DHT22;42987;52.916;6.542;2024-01-25T07:01:23;4.20;99.90
57108;DHT22;42987;52.916;6.542;2024-01-25T07:03:49;4.20;99.90
57108;DHT22;42987;52.916;6.542;2024-01-25T07:06:18;4.10;99.90
57108;DHT22;42987;52.916;6.542;2024-01-25T07:08:45;4.10;99.90
57108;DHT22;42987;52.916;6.542;2024-01-25T07:11:11;4.10;99.90
57108;DHT22;42987;52.916;6.542;2024-01-25T07:13:37;4.10;99.90
57108;DHT22;42987;52.916;6.542;2024-01-25T07:16:03;4.10;99.90
57108;DHT22;42987;52.916;6.542;2024-01-25T07:18:29;4.00;99.90
57108;DHT22;42987;52.916;6.542;2024-01-25T07:20:55;4.10;99.90
57108;DHT22;42987;52.916;6.542;2024-01-25T07:23:21;4.10;99.90
57108;DHT22;42987;52.916;6.542;2024-01-25T07:25:47;4.00;99.90
57108;DHT22;42987;52.916;6.542;2024-01-25T07:28:13;4.00;99.90
57108;DHT22;42987;52.916;6.542;2024-01-25T07:30:39;4.00;99.90
57108;DHT22;42987;52.916;6.542;2024-01-25T07:33:05;4.00;99.90
57108;DHT22;42987;52.916;6.542;2024-01-25T07:35:32;3.90;99.90
57108;DHT22;42987;52.916;6.542;2024-01-25T07:37:57;4.00;99.90
57108;DHT22;42987;52.916;6.542;2024-01-25T07:40:23;3.90;99.90
57108;DHT22;42987;52.916;6.542;2024-01-25T07:42:49;3.90;99.90
57108;DHT22;42987;52.916;6.542;2024-01-25T07:45:18;3.90;99.90
57108;DHT22;42987;52.916;6.542;2024-01-25T07:47:44;3.80;99.90
57108;DHT22;42987;52.916;6.542;2024-01-25T07:50:10;3.80;99.90
57108;DHT22;42987;52.916;6.542;2024-01-25T07:52:36;3.90;99.90
57108;DHT22;42987;52.916;6.542;2024-01-25T07:55:01;3.90;99.90
57108;DHT22;42987;52.916;6.542;2024-01-25T07:57:27;3.90;99.90
57108;DHT22;42987;52.916;6.542;2024-01-25T07:59:53;3.90;99.90
57108;DHT22;42987;52.916;6.542;2024-01-25T08:02:18;4.00;99.90
57108;DHT22;42987;52.916;6.542;2024-01-25T08:04:47;4.00;99.90
57108;DHT22;42987;52.916;6.542;2024-01-25T08:07:13;4.00;99.90
57108;DHT22;42987;52.916;6.542;2024-01-25T08:09:39;4.10;99.90
57108;DHT22;42987;52.916;6.542;2024-01-25T08:12:04;4.10;99.90
57108;DHT22;42987;52.916;6.542;2024-01-25T08:14:33;4.10;99.90
57108;DHT22;42987;52.916;6.542;2024-01-25T08:16:59;4.30;99.90
57108;DHT22;42987;52.916;6.542;2024-01-25T08:19:26;4.30;99.90
57108;DHT22;42987;52.916;6.542;2024-01-25T08:21:51;4.40;99.90
57108;DHT22;42987;52.916;6.542;2024-01-25T08:24:17;4.50;99.90
57108;DHT22;42987;52.916;6.542;2024-01-25T08:26:43;4.50;99.90
57108;DHT22;42987;52.916;6.542;2024-01-25T08:29:10;4.60;99.90
57108;DHT22;42987;52.916;6.542;2024-01-25T08:31:36;4.60;99.90
57108;DHT22;42987;52.916;6.542;2024-01-25T08:34:02;4.70;99.90
57108;DHT22;42987;52.916;6.542;2024-01-25T08:36:27;4.70;99.90
57108;DHT22;42987;52.916;6.542;2024-01-25T08:38:53;4.60;99.90
57108;DHT22;42987;52.916;6.542;2024-01-25T08:41:19;4.70;99.90
57108;DHT22;42987;52.916;6.542;2024-01-25T08:43:44;4.70;99.90
57108;DHT22;42987;52.916;6.542;2024-01-25T08:46:14;4.70;99.90
57108;DHT22;42987;52.916;6.542;2024-01-25T08:48:40;4.80;99.90
57108;DHT22;42987;52.916;6.542;2024-01-25T08:51:07;4.80;99.90
57108;DHT22;42987;52.916;6.542;2024-01-25T08:53:33;4.80;99.90
57108;DHT22;42987;52.916;6.542;2024-01-25T08:55:59;4.80;99.90
57108;DHT22;42987;52.916;6.542;2024-01-25T08:58:25;4.80;99.90
57108;DHT22;42987;52.916;6.542;2024-01-25T09:00:51;4.90;99.90
57108;DHT22;42987;52.916;6.542;2024-01-25T09:03:17;4.90;99.90
57108;DHT22;42987;52.916;6.542;2024-01-25T09:05:43;4.90;99.90
57108;DHT22;42987;52.916;6.542;2024-01-25T09:08:12;4.90;99.90
57108;DHT22;42987;52.916;6.542;2024-01-25T09:10:39;4.90;99.90
57108;DHT22;42987;52.916;6.542;2024-01-25T09:13:05;4.90;99.90
57108;DHT22;42987;52.916;6.542;2024-01-25T09:15:31;4.90;99.90
57108;DHT22;42987;52.916;6.542;2024-01-25T09:17:56;5.00;99.90
57108;DHT22;42987;52.916;6.542;2024-01-25T09:20:22;5.00;99.90
57108;DHT22;42987;52.916;6.542;2024-01-25T09:22:48;5.10;99.90
57108;DHT22;42987;52.916;6.542;2024-01-25T09:25:14;5.10;99.90
57108;DHT22;42987;52.916;6.542;2024-01-25T09:27:39;5.10;99.90
57108;DHT22;42987;52.916;6.542;2024-01-25T09:30:08;5.10;99.90
57108;DHT22;42987;52.916;6.542;2024-01-25T09:32:34;5.20;99.90
57108;DHT22;42987;52.916;6.542;2024-01-25T09:35:03;5.20;99.90
57108;DHT22;42987;52.916;6.542;2024-01-25T09:37:29;5.30;99.90
57108;DHT22;42987;52.916;6.542;2024-01-25T09:39:54;5.20;99.90
57108;DHT22;42987;52.916;6.542;2024-01-25T09:42:20;5.30;99.90
57108;DHT22;42987;52.916;6.542;2024-01-25T09:44:46;5.30;99.90
57108;DHT22;42987;52.916;6.542;2024-01-25T09:47:12;5.30;99.90
57108;DHT22;42987;52.916;6.542;2024-01-25T09:49:39;5.30;99.90
57108;DHT22;42987;52.916;6.542;2024-01-25T09:52:05;5.40;99.90
57108;DHT22;42987;52.916;6.542;2024-01-25T09:54:35;5.40;99.90
57108;DHT22;42987;52.916;6.542;2024-01-25T09:57:08;5.40;99.90
57108;DHT22;42987;52.916;6.542;2024-01-25T09:59:36;5.40;99.90
57108;DHT22;42987;52.916;6.542;2024-01-25T10:02:02;5.40;99.90
57108;DHT22;42987;52.916;6.542;2024-01-25T10:04:29;5.40;99.90
57108;DHT22;42987;52.916;6.542;2024-01-25T10:06:58;5.50;99.90
57108;DHT22;42987;52.916;6.542;2024-01-25T10:09:24;5.50;99.90
57108;DHT22;42987;52.916;6.542;2024-01-25T10:11:50;5.50;99.90
57108;DHT22;42987;52.916;6.542;2024-01-25T10:14:15;5.50;99.90
57108;DHT22;42987;52.916;6.542;2024-01-25T10:16:41;5.60;99.90
57108;DHT22;42987;52.916;6.542;2024-01-25T10:19:07;5.60;99.90
57108;DHT22;42987;52.916;6.542;2024-01-25T10:21:35;5.60;99.90
57108;DHT22;42987;52.916;6.542;2024-01-25T10:24:01;5.70;99.90
57108;DHT22;42987;52.916;6.542;2024-01-25T10:26:28;5.70;99.90
57108;DHT22;42987;52.916;6.542;2024-01-25T10:28:57;5.70;99.90
57108;DHT22;42987;52.916;6.542;2024-01-25T10:31:24;5.80;99.90
57108;DHT22;42987;52.916;6.542;2024-01-25T10:33:52;5.80;99.90
57108;DHT22;42987;52.916;6.542;2024-01-25T10:36:18;5.80;99.90
57108;DHT22;42987;52.916;6.542;2024-01-25T10:38:48;5.90;99.90
57108;DHT22;42987;52.916;6.542;2024-01-25T10:41:14;5.90;99.90
57108;DHT22;42987;52.916;6.542;2024-01-25T10:43:42;5.90;99.90
57108;DHT22;42987;52.916;6.542;2024-01-25T10:46:09;6.00;99.90
57108;DHT22;42987;52.916;6.542;2024-01-25T10:48:35;6.00;99.90
57108;DHT22;42987;52.916;6.542;2024-01-25T10:51:02;6.00;99.90
57108;DHT22;42987;52.916;6.542;2024-01-25T10:53:33;6.10;99.90
57108;DHT22;42987;52.916;6.542;2024-01-25T10:56:00;6.10;99.90
57108;DHT22;42987;52.916;6.542;2024-01-25T10:58:31;6.20;99.90
57108;DHT22;42987;52.916;6.542;2024-01-25T11:00:59;6.30;99.90
57108;DHT22;42987;52.916;6.542;2024-01-25T11:03:26;6.40;99.90
57108;DHT22;42987;52.916;6.542;2024-01-25T11:05:55;6.50;99.90
57108;DHT22;42987;52.916;6.542;2024-01-25T11:08:21;6.50;99.90
57108;DHT22;42987;52.916;6.542;2024-01-25T11:10:51;6.60;99.90
57108;DHT22;42987;52.916;6.542;2024-01-25T11:13:29;6.70;99.90
57108;DHT22;42987;52.916;6.542;2024-01-25T11:15:55;6.80;99.90
57108;DHT22;42987;52.916;6.542;2024-01-25T11:18:25;6.90;99.90
57108;DHT22;42987;52.916;6.542;2024-01-25T11:20:51;7.00;99.90
57108;DHT22;42987;52.916;6.542;2024-01-25T11:23:17;7.00;99.90
57108;DHT22;42987;52.916;6.542;2024-01-25T11:25:47;7.10;99.90
57108;DHT22;42987;52.916;6.542;2024-01-25T11:28:14;7.20;99.90
57108;DHT22;42987;52.916;6.542;2024-01-25T11:30:43;7.30;99.90
57108;DHT22;42987;52.916;6.542;2024-01-25T11:33:10;7.30;99.90
57108;DHT22;42987;52.916;6.542;2024-01-25T11:35:37;7.40;99.90
57108;DHT22;42987;52.916;6.542;2024-01-25T11:38:03;7.40;99.90
57108;DHT22;42987;52.916;6.542;2024-01-25T11:40:29;7.50;99.90
57108;DHT22;42987;52.916;6.542;2024-01-25T11:42:57;7.50;99.90
57108;DHT22;42987;52.916;6.542;2024-01-25T11:45:22;7.50;99.90
57108;DHT22;42987;52.916;6.542;2024-01-25T11:47:48;7.60;99.90
57108;DHT22;42987;52.916;6.542;2024-01-25T11:50:15;7.60;99.90
57108;DHT22;42987;52.916;6.542;2024-01-25T11:52:41;7.70;99.90
57108;DHT22;42987;52.916;6.542;2024-01-25T11:55:08;7.60;99.90
57108;DHT22;42987;52.916;6.542;2024-01-25T11:57:39;7.70;99.90
57108;DHT22;42987;52.916;6.542;2024-01-25T12:00:12;7.70;99.90
57108;DHT22;42987;52.916;6.542;2024-01-25T12:02:39;7.60;99.90
57108;DHT22;42987;52.916;6.542;2024-01-25T12:05:05;7.60;99.90
57108;DHT22;42987;52.916;6.542;2024-01-25T12:07:32;7.50;99.90
57108;DHT22;42987;52.916;6.542;2024-01-25T12:10:05;7.50;99.90
57108;DHT22;42987;52.916;6.542;2024-01-25T12:12:31;7.50;99.90
57108;DHT22;42987;52.916;6.542;2024-01-25T12:15:09;7.50;99.90
57108;DHT22;42987;52.916;6.542;2024-01-25T12:17:35;7.60;99.90
57108;DHT22;42987;52.916;6.542;2024-01-25T12:20:05;7.50;99.90
57108;DHT22;42987;52.916;6.542;2024-01-25T12:22:37;7.60;99.90
57108;DHT22;42987;52.916;6.542;2024-01-25T12:25:09;7.60;99.90
57108;DHT22;42987;52.916;6.542;2024-01-25T12:27:35;7.70;99.90
57108;DHT22;42987;52.916;6.542;2024-01-25T12:30:03;7.80;99.90
57108;DHT22;42987;52.916;6.542;2024-01-25T12:32:29;7.90;99.90
57108;DHT22;42987;52.916;6.542;2024-01-25T12:34:56;7.90;99.90
57108;DHT22;42987;52.916;6.542;2024-01-25T12:37:22;8.00;99.90
57108;DHT22;42987;52.916;6.542;2024-01-25T12:39:49;8.00;99.90
57108;DHT22;42987;52.916;6.542;2024-01-25T12:42:15;8.10;99.90
57108;DHT22;42987;52.916;6.542;2024-01-25T12:44:41;8.10;99.90
57108;DHT22;42987;52.916;6.542;2024-01-25T12:47:07;8.10;99.90
57108;DHT22;42987;52.916;6.542;2024-01-25T12:49:35;8.10;99.90
57108;DHT22;42987;52.916;6.542;2024-01-25T12:52:01;8.10;99.90
57108;DHT22;42987;52.916;6.542;2024-01-25T12:54:27;8.00;99.90
57108;DHT22;42987;52.916;6.542;2024-01-25T12:56:54;8.00;99.90
57108;DHT22;42987;52.916;6.542;2024-01-25T12:59:20;8.00;99.90
57108;DHT22;42987;52.916;6.542;2024-01-25T13:01:46;8.00;99.90
57108;DHT22;42987;52.916;6.542;2024-01-25T13:04:11;8.00;99.90
57108;DHT22;42987;52.916;6.542;2024-01-25T13:06:37;7.90;99.90
57108;DHT22;42987;52.916;6.542;2024-01-25T13:09:03;7.90;99.90
57108;DHT22;42987;52.916;6.542;2024-01-25T13:11:29;7.90;99.90
57108;DHT22;42987;52.916;6.542;2024-01-25T13:13:56;7.90;99.90
57108;DHT22;42987;52.916;6.542;2024-01-25T13:16:21;7.90;99.90
57108;DHT22;42987;52.916;6.542;2024-01-25T13:18:47;7.90;99.90
57108;DHT22;42987;52.916;6.542;2024-01-25T13:21:13;7.90;99.90
57108;DHT22;42987;52.916;6.542;2024-01-25T13:23:39;7.90;99.90
57108;DHT22;42987;52.916;6.542;2024-01-25T13:26:07;7.90;99.90
57108;DHT22;42987;52.916;6.542;2024-01-25T13:28:33;7.90;99.90
57108;DHT22;42987;52.916;6.542;2024-01-25T13:30:59;7.90;99.90
57108;DHT22;42987;52.916;6.542;2024-01-25T13:33:25;8.00;99.90
57108;DHT22;42987;52.916;6.542;2024-01-25T13:35:51;8.00;99.90
57108;DHT22;42987;52.916;6.542;2024-01-25T13:38:17;8.00;99.90
57108;DHT22;42987;52.916;6.542;2024-01-25T13:40:42;8.00;99.90
57108;DHT22;42987;52.916;6.542;2024-01-25T13:43:08;8.10;99.90
57108;DHT22;42987;52.916;6.542;2024-01-25T13:45:34;8.10;99.90
57108;DHT22;42987;52.916;6.542;2024-01-25T13:48:03;8.10;99.90
57108;DHT22;42987;52.916;6.542;2024-01-25T13:50:29;8.10;99.90
57108;DHT22;42987;52.916;6.542;2024-01-25T13:52:55;8.10;99.90
57108;DHT22;42987;52.916;6.542;2024-01-25T13:55:21;8.20;99.90
57108;DHT22;42987;52.916;6.542;2024-01-25T13:57:46;8.20;99.90
57108;DHT22;42987;52.916;6.542;2024-01-25T14:00:13;8.20;99.90
57108;DHT22;42987;52.916;6.542;2024-01-25T14:02:40;8.20;99.90
57108;DHT22;42987;52.916;6.542;2024-01-25T14:05:08;8.20;99.90
57108;DHT22;42987;52.916;6.542;2024-01-25T14:07:33;8.20;99.90
57108;DHT22;42987;52.916;6.542;2024-01-25T14:09:59;8.20;99.90
57108;DHT22;42987;52.916;6.542;2024-01-25T14:12:25;8.30;99.90
57108;DHT22;42987;52.916;6.542;2024-01-25T14:14:51;8.30;99.90
57108;DHT22;42987;52.916;6.542;2024-01-25T14:17:16;8.30;99.90
57108;DHT22;42987;52.916;6.542;2024-01-25T14:19:42;8.30;99.90
57108;DHT22;42987;52.916;6.542;2024-01-25T14:22:08;8.30;99.90
57108;DHT22;42987;52.916;6.542;2024-01-25T14:24:34;8.20;99.90
57108;DHT22;42987;52.916;6.542;2024-01-25T14:27:00;8.20;99.90
57108;DHT22;42987;52.916;6.542;2024-01-25T14:29:26;8.20;99.90
57108;DHT22;42987;52.916;6.542;2024-01-25T14:31:51;8.20;99.90
57108;DHT22;42987;52.916;6.542;2024-01-25T14:34:17;8.20;99.90
57108;DHT22;42987;52.916;6.542;2024-01-25T14:36:43;8.10;99.90
57108;DHT22;42987;52.916;6.542;2024-01-25T14:39:12;8.00;99.90
57108;DHT22;42987;52.916;6.542;2024-01-25T14:41:37;8.10;99.90
57108;DHT22;42987;52.916;6.542;2024-01-25T14:44:03;8.10;99.90
57108;DHT22;42987;52.916;6.542;2024-01-25T14:46:30;8.10;99.90
57108;DHT22;42987;52.916;6.542;2024-01-25T14:48:58;8.20;99.90
57108;DHT22;42987;52.916;6.542;2024-01-25T14:51:25;8.10;99.90
57108;DHT22;42987;52.916;6.542;2024-01-25T14:53:51;8.10;99.90
57108;DHT22;42987;52.916;6.542;2024-01-25T14:56:16;8.10;99.90
57108;DHT22;42987;52.916;6.542;2024-01-25T14:58:42;8.10;99.90
57108;DHT22;42987;52.916;6.542;2024-01-25T15:01:13;8.20;99.90
57108;DHT22;42987;52.916;6.542;2024-01-25T15:03:38;8.10;99.90
57108;DHT22;42987;52.916;6.542;2024-01-25T15:06:04;8.10;99.90
57108;DHT22;42987;52.916;6.542;2024-01-25T15:08:33;8.10;99.90
57108;DHT22;42987;52.916;6.542;2024-01-25T15:10:59;8.10;99.90
57108;DHT22;42987;52.916;6.542;2024-01-25T15:13:25;8.10;99.90
57108;DHT22;42987;52.916;6.542;2024-01-25T15:15:51;8.10;99.90
57108;DHT22;42987;52.916;6.542;2024-01-25T15:18:16;8.20;99.90
57108;DHT22;42987;52.916;6.542;2024-01-25T15:20:43;8.20;99.90
57108;DHT22;42987;52.916;6.542;2024-01-25T15:23:09;8.30;99.90
57108;DHT22;42987;52.916;6.542;2024-01-25T15:25:35;8.30;99.90
57108;DHT22;42987;52.916;6.542;2024-01-25T15:28:01;8.30;99.90
57108;DHT22;42987;52.916;6.542;2024-01-25T15:30:26;8.20;99.90
57108;DHT22;42987;52.916;6.542;2024-01-25T15:32:52;8.20;99.90
57108;DHT22;42987;52.916;6.542;2024-01-25T15:35:18;8.10;99.90
57108;DHT22;42987;52.916;6.542;2024-01-25T15:37:43;8.00;99.90
57108;DHT22;42987;52.916;6.542;2024-01-25T15:40:10;8.00;99.90